createdAt,value
2023-01-18T00:01:01.219Z,13.90
2023-01-18T00:03:27.739Z,14.02
2023-01-18T00:05:54.884Z,15.00
2023-01-18T00:08:21.256Z,13.63
2023-01-18T00:10:47.666Z,14.23
2023-01-18T00:13:13.989Z,16.00
2023-01-18T00:15:40.440Z,15.77
2023-01-18T00:18:07.202Z,16.23
2023-01-18T00:20:33.593Z,18.13
2023-01-18T00:23:04.131Z,17.38
2023-01-18T00:25:30.857Z,17.00
2023-01-18T00:27:57.556Z,18.17
2023-01-18T00:30:27.337Z,17.77
2023-01-18T00:32:56.617Z,18.10
2023-01-18T00:35:24.085Z,18.10
2023-01-18T00:37:51.860Z,17.88
2023-01-18T00:40:19.625Z,18.65
2023-01-18T00:43:04.692Z,19.02
2023-01-18T00:45:31.164Z,16.83
2023-01-18T00:47:58.333Z,16.88
2023-01-18T00:50:25.107Z,16.77
2023-01-18T00:52:56.668Z,16.30
2023-01-18T00:55:23.717Z,15.85
2023-01-18T00:57:50.413Z,14.95
2023-01-18T01:00:19.540Z,15.52
2023-01-18T01:02:46.350Z,15.90
2023-01-18T01:05:40.498Z,15.43
2023-01-18T01:08:07.429Z,15.20
2023-01-18T01:10:36.625Z,14.85
2023-01-18T01:13:21.502Z,16.02
2023-01-18T01:16:06.278Z,16.05
2023-01-18T01:18:51.117Z,15.73
2023-01-18T01:21:36.184Z,15.73
2023-01-18T01:24:21.077Z,16.23
2023-01-18T01:26:47.619Z,16.20
2023-01-18T01:29:14.128Z,14.77
2023-01-18T01:31:40.691Z,16.10
2023-01-18T01:34:07.252Z,16.60
2023-01-18T01:36:33.654Z,15.70
2023-01-18T01:39:00.113Z,15.60
2023-01-18T01:41:29.669Z,14.82
2023-01-18T01:43:58.932Z,14.93
2023-01-18T01:46:36.993Z,15.35
2023-01-18T01:49:12.836Z,14.48
2023-01-18T01:51:46.055Z,14.52
2023-01-18T01:54:23.767Z,14.63
2023-01-18T01:56:55.503Z,14.40
2023-01-18T01:59:22.646Z,14.57
2023-01-18T02:01:49.696Z,15.02
2023-01-18T02:04:16.320Z,15.55
2023-01-18T02:06:42.674Z,13.82
2023-01-18T02:09:13.199Z,13.00
2023-01-18T02:11:41.154Z,13.60
2023-01-18T02:14:10.555Z,14.35
2023-01-18T02:17:08.739Z,14.27
2023-01-18T02:20:06.836Z,12.77
2023-01-18T02:22:48.204Z,13.45
2023-01-18T02:25:39.044Z,13.98
2023-01-18T02:28:17.146Z,15.90
2023-01-18T02:30:52.966Z,13.68
2023-01-18T02:33:46.974Z,14.00
2023-01-18T02:36:26.508Z,13.50
2023-01-18T02:39:00.220Z,13.13
2023-01-18T02:42:06.939Z,13.20
2023-01-18T02:47:24.689Z,11.25
2023-01-18T02:49:51.093Z,12.52
2023-01-18T02:52:41.254Z,14.52
2023-01-18T02:55:13.936Z,14.55
2023-01-18T02:57:40.472Z,14.15
2023-01-18T03:00:09.995Z,14.20
2023-01-18T03:02:38.214Z,14.60
2023-01-18T03:05:07.252Z,14.68
2023-01-18T03:07:58.767Z,15.07
2023-01-18T03:10:31.053Z,14.60
2023-01-18T03:13:03.924Z,15.48
2023-01-18T03:15:51.852Z,14.93
2023-01-18T03:18:21.992Z,14.98
2023-01-18T03:20:53.426Z,13.65
2023-01-18T03:23:40.983Z,14.48
2023-01-18T03:26:19.211Z,14.75
2023-01-18T03:29:10.730Z,13.85
2023-01-18T03:32:01.583Z,13.98
2023-01-18T03:34:33.254Z,14.25
2023-01-18T03:37:04.619Z,12.48
2023-01-18T03:39:42.925Z,14.57
2023-01-18T03:42:14.401Z,14.00
2023-01-18T03:44:48.013Z,13.50
2023-01-18T03:47:14.476Z,14.77
2023-01-18T03:49:41.192Z,15.00
2023-01-18T03:52:15.188Z,14.93
2023-01-18T03:54:56.771Z,16.25
2023-01-18T03:57:28.437Z,14.80
2023-01-18T03:59:55.283Z,15.02
2023-01-18T04:02:23.213Z,16.27
2023-01-18T04:04:50.027Z,16.15
2023-01-18T04:07:16.399Z,16.35
2023-01-18T04:09:42.803Z,15.15
2023-01-18T04:12:09.384Z,15.45
2023-01-18T04:14:35.743Z,14.15
2023-01-18T04:17:02.087Z,13.52
2023-01-18T04:19:28.637Z,13.55
2023-01-18T04:21:55.050Z,14.35
2023-01-18T04:24:21.438Z,13.90
2023-01-18T04:26:47.875Z,13.65
2023-01-18T04:29:14.234Z,14.13
2023-01-18T04:31:40.652Z,15.82
2023-01-18T04:34:07.199Z,13.40
2023-01-18T04:36:33.622Z,13.48
2023-01-18T04:39:00.179Z,14.65
2023-01-18T04:41:26.580Z,14.15
2023-01-18T04:43:53.039Z,13.90
2023-01-18T04:46:19.598Z,14.35
2023-01-18T04:48:50.603Z,15.38
2023-01-18T04:51:17.860Z,13.93
2023-01-18T04:53:45.025Z,14.13
2023-01-18T04:56:11.979Z,13.77
2023-01-18T04:58:38.707Z,16.13
2023-01-18T05:01:07.461Z,14.70
2023-01-18T05:03:38.387Z,14.70
2023-01-18T05:06:10.401Z,15.85
2023-01-18T05:08:41.193Z,14.07
2023-01-18T05:11:13.284Z,14.43
2023-01-18T05:13:40.457Z,15.02
2023-01-18T05:16:08.697Z,14.40
2023-01-18T05:18:35.175Z,14.75
2023-01-18T05:21:01.602Z,14.10
2023-01-18T05:23:28.124Z,13.80
2023-01-18T05:25:56.686Z,13.57
2023-01-18T05:28:24.452Z,13.65
2023-01-18T05:30:51.421Z,14.30
2023-01-18T05:33:19.179Z,13.52
2023-01-18T05:35:50.660Z,14.38
2023-01-18T05:38:17.830Z,13.63
2023-01-18T05:40:45.473Z,13.82
2023-01-18T05:43:12.721Z,12.73
2023-01-18T05:45:40.173Z,14.52
2023-01-18T05:48:06.587Z,15.45
2023-01-18T05:50:33.151Z,14.73
2023-01-18T05:53:00.418Z,15.55
2023-01-18T05:55:27.579Z,16.45
2023-01-18T05:57:54.184Z,16.50
2023-01-18T06:00:20.883Z,17.10
2023-01-18T06:02:47.246Z,16.52
2023-01-18T06:05:13.898Z,18.08
2023-01-18T06:07:42.085Z,17.20
2023-01-18T06:10:09.731Z,17.48
2023-01-18T06:12:36.206Z,17.00
2023-01-18T06:15:02.544Z,17.92
2023-01-18T06:17:31.293Z,16.85
2023-01-18T06:19:58.131Z,17.73
2023-01-18T06:22:24.484Z,17.95
2023-01-18T06:24:50.916Z,15.93
2023-01-18T06:27:17.318Z,16.30
2023-01-18T06:29:43.650Z,15.43
2023-01-18T06:32:10.071Z,14.65
2023-01-18T06:34:36.839Z,15.48
2023-01-18T06:37:04.228Z,14.18
2023-01-18T06:39:30.700Z,13.57
2023-01-18T06:41:57.030Z,14.50
2023-01-18T06:44:23.388Z,14.20
2023-01-18T06:46:49.849Z,14.15
2023-01-18T06:49:16.911Z,13.73
2023-01-18T06:51:43.323Z,14.73
2023-01-18T06:54:10.143Z,14.68
2023-01-18T06:56:36.524Z,14.68
2023-01-18T06:59:03.522Z,15.45
2023-01-18T07:01:29.996Z,15.10
2023-01-18T07:03:56.517Z,13.88
2023-01-18T07:06:22.989Z,14.68
2023-01-18T07:08:49.657Z,14.18
2023-01-18T07:11:16.260Z,13.38
2023-01-18T07:13:43.609Z,13.93
2023-01-18T07:16:18.221Z,14.43
2023-01-18T07:18:46.802Z,14.43
2023-01-18T07:21:15.143Z,14.68
2023-01-18T07:23:42.536Z,14.50
2023-01-18T07:26:11.407Z,13.85
2023-01-18T07:28:38.144Z,14.27
2023-01-18T07:31:06.118Z,13.90
2023-01-18T07:33:32.560Z,14.68
2023-01-18T07:35:59.293Z,14.50
2023-01-18T07:38:26.672Z,14.45
2023-01-18T07:41:05.163Z,15.00
2023-01-18T07:43:33.102Z,15.50
2023-01-18T07:46:00.598Z,13.63
2023-01-18T07:48:28.177Z,14.07
2023-01-18T07:51:03.942Z,14.27
2023-01-18T07:53:32.271Z,14.85
2023-01-18T07:56:00.770Z,13.43
2023-01-18T07:58:27.628Z,13.30
2023-01-18T08:00:53.984Z,14.95
2023-01-18T08:03:20.920Z,14.05
2023-01-18T08:05:47.557Z,14.27
2023-01-18T08:08:16.552Z,14.25
2023-01-18T08:10:43.887Z,15.55
2023-01-18T08:13:11.068Z,15.02
2023-01-18T08:15:39.047Z,15.00
2023-01-18T08:18:06.783Z,15.38
2023-01-18T08:20:33.478Z,16.17
2023-01-18T08:23:01.319Z,15.02
2023-01-18T08:25:29.780Z,15.93
2023-01-18T08:27:59.004Z,14.77
2023-01-18T08:30:28.112Z,14.55
2023-01-18T08:32:56.513Z,15.10
2023-01-18T08:35:34.820Z,15.70
2023-01-18T08:38:01.925Z,16.98
2023-01-18T08:40:29.907Z,15.52
2023-01-18T08:42:58.619Z,16.10
2023-01-18T08:45:25.814Z,14.35
2023-01-18T08:48:00.514Z,15.95
2023-01-18T08:50:27.859Z,15.10
2023-01-18T08:52:54.242Z,14.88
2023-01-18T08:55:22.017Z,16.00
2023-01-18T08:57:49.756Z,15.32
2023-01-18T09:00:17.431Z,15.02
2023-01-18T09:02:43.952Z,15.63
2023-01-18T09:05:10.617Z,15.73
2023-01-18T09:07:36.938Z,15.93
2023-01-18T09:10:04.355Z,16.02
2023-01-18T09:12:30.807Z,15.48
2023-01-18T09:14:57.160Z,14.98
2023-01-18T09:17:23.613Z,15.57
2023-01-18T09:19:49.919Z,16.38
2023-01-18T09:22:16.268Z,16.33
2023-01-18T09:24:42.762Z,15.60
2023-01-18T09:27:09.248Z,16.35
2023-01-18T09:29:35.647Z,16.75
2023-01-18T09:32:02.053Z,17.27
2023-01-18T09:34:28.536Z,16.23
2023-01-18T09:36:54.904Z,16.38
2023-01-18T09:39:22.299Z,15.75
2023-01-18T09:41:52.478Z,16.60
2023-01-18T09:44:29.397Z,16.00
2023-01-18T09:47:12.463Z,16.80
2023-01-18T09:50:13.462Z,15.10
2023-01-18T09:52:55.910Z,15.88
2023-01-18T09:55:43.728Z,14.15
2023-01-18T09:58:28.034Z,15.35
2023-01-18T10:00:58.838Z,16.10
2023-01-18T10:03:43.220Z,16.48
2023-01-18T10:06:19.490Z,15.70
2023-01-18T10:09:06.176Z,15.70
2023-01-18T10:11:44.942Z,15.18
2023-01-18T10:14:28.159Z,15.77
2023-01-18T10:17:00.322Z,16.27
2023-01-18T10:19:31.509Z,14.73
2023-01-18T10:22:02.348Z,16.08
2023-01-18T10:24:31.757Z,15.80
2023-01-18T10:27:23.288Z,15.90
2023-01-18T10:30:14.294Z,15.88
2023-01-18T10:32:50.671Z,15.93
2023-01-18T10:35:45.253Z,15.93
2023-01-18T10:38:15.336Z,15.55
2023-01-18T10:40:43.663Z,15.48
2023-01-18T10:43:15.739Z,15.32
2023-01-18T10:45:42.213Z,17.48
2023-01-18T10:48:17.515Z,15.95
2023-01-18T10:50:47.427Z,16.80
2023-01-18T10:53:32.798Z,16.35
2023-01-18T10:56:17.284Z,11.65
2023-01-18T10:58:46.751Z,16.17
2023-01-18T11:01:24.734Z,15.48
2023-01-18T11:04:05.762Z,16.27
2023-01-18T11:06:46.454Z,16.27
2023-01-18T11:09:39.184Z,16.73
2023-01-18T11:12:41.160Z,16.77
2023-01-18T11:15:13.646Z,16.00
2023-01-18T11:17:54.482Z,16.48
2023-01-18T11:20:28.262Z,17.02
2023-01-18T11:22:58.731Z,16.63
2023-01-18T11:25:27.601Z,17.77
2023-01-18T11:28:01.949Z,17.55
2023-01-18T11:30:28.848Z,16.83
2023-01-18T11:32:55.434Z,16.70
2023-01-18T11:35:32.803Z,17.08
2023-01-18T11:38:02.228Z,17.52
2023-01-18T11:40:32.141Z,16.80
2023-01-18T11:43:17.345Z,17.38
2023-01-18T11:45:49.781Z,18.08
2023-01-18T11:48:46.688Z,17.48
2023-01-18T11:51:22.755Z,17.90
2023-01-18T11:54:02.627Z,17.85
2023-01-18T11:56:40.625Z,17.00
2023-01-18T11:59:33.872Z,16.60
2023-01-18T12:02:30.968Z,16.17
2023-01-18T12:05:20.697Z,18.02
2023-01-18T12:07:59.951Z,15.73
2023-01-18T12:10:33.974Z,16.63
2023-01-18T12:13:28.685Z,17.90
2023-01-18T12:16:19.852Z,17.20
2023-01-18T12:19:16.792Z,17.67
2023-01-18T12:22:06.598Z,17.05
2023-01-18T12:24:42.586Z,16.98
2023-01-18T12:27:28.449Z,18.10
2023-01-18T12:30:21.436Z,17.45
2023-01-18T12:33:04.704Z,18.52
2023-01-18T12:35:49.727Z,17.67
2023-01-18T12:38:18.709Z,17.20
2023-01-18T12:40:53.942Z,17.27
2023-01-18T12:43:40.883Z,17.23
2023-01-18T12:46:10.792Z,16.58
2023-01-18T12:48:53.040Z,18.75
2023-01-18T12:51:24.224Z,17.73
2023-01-18T12:53:56.056Z,16.80
2023-01-18T12:56:32.165Z,17.60
2023-01-18T12:59:02.176Z,16.40
2023-01-18T13:01:39.010Z,17.15
2023-01-18T13:04:14.349Z,16.92
2023-01-18T13:06:42.881Z,16.70
2023-01-18T13:09:18.494Z,15.90
2023-01-18T13:14:26.449Z,14.98
2023-01-18T13:17:13.483Z,13.93
2023-01-18T13:20:00.367Z,15.23
2023-01-18T13:22:37.240Z,15.32
2023-01-18T13:25:26.320Z,14.63
2023-01-18T13:28:02.103Z,14.98
2023-01-18T13:30:34.838Z,14.23
2023-01-18T13:33:13.319Z,14.65
2023-01-18T13:35:51.288Z,13.90
2023-01-18T13:38:27.495Z,14.52
2023-01-18T13:41:02.701Z,14.25
2023-01-18T13:43:36.382Z,12.80
2023-01-18T13:46:05.683Z,14.43
2023-01-18T13:48:54.153Z,13.40
2023-01-18T13:51:39.238Z,13.73
2023-01-18T13:54:07.687Z,13.70
2023-01-18T13:56:38.417Z,13.90
2023-01-18T13:59:14.392Z,13.90
2023-01-18T14:01:43.996Z,14.05
2023-01-18T14:04:30.659Z,12.93
2023-01-18T14:07:00.730Z,12.73
2023-01-18T14:09:36.996Z,13.18
2023-01-18T14:12:04.479Z,17.35
2023-01-18T14:14:52.432Z,16.20
2023-01-18T14:17:19.256Z,18.55
2023-01-18T14:19:48.557Z,19.27
2023-01-18T14:22:45.830Z,20.15
2023-01-18T14:25:32.640Z,18.20
2023-01-18T14:28:13.436Z,18.65
2023-01-18T14:30:43.571Z,19.15
2023-01-18T14:33:23.746Z,18.20
2023-01-18T14:35:55.476Z,16.90
2023-01-18T14:38:21.881Z,15.75
2023-01-18T14:40:52.536Z,15.77
2023-01-18T14:43:32.051Z,15.77
2023-01-18T14:46:02.571Z,15.65
2023-01-18T14:48:31.826Z,15.07
2023-01-18T14:50:59.592Z,17.95
2023-01-18T14:53:29.827Z,17.45
2023-01-18T14:56:16.571Z,17.58
2023-01-18T14:59:00.939Z,18.45
2023-01-18T15:01:37.931Z,18.50
2023-01-18T15:04:18.279Z,20.00
2023-01-18T15:06:48.889Z,19.60
2023-01-18T15:09:18.252Z,16.40
2023-01-18T15:11:45.140Z,14.60
2023-01-18T15:14:24.957Z,12.73
2023-01-18T15:16:54.978Z,12.82
2023-01-18T15:19:24.716Z,11.85
2023-01-18T15:21:51.330Z,10.95
2023-01-18T15:24:20.998Z,11.60
2023-01-18T15:26:51.381Z,10.50
2023-01-18T15:29:32.180Z,10.20
2023-01-18T15:32:04.494Z,10.07
2023-01-18T15:34:36.973Z,9.85
2023-01-18T15:37:12.034Z,10.20
2023-01-18T15:39:49.702Z,10.02
2023-01-18T15:42:17.594Z,10.52
2023-01-18T15:44:47.901Z,8.95
2023-01-18T15:47:23.483Z,9.40
2023-01-18T15:49:52.289Z,10.27
2023-01-18T15:52:45.492Z,10.20
2023-01-18T15:55:28.292Z,9.38
2023-01-18T15:58:01.343Z,9.05
2023-01-18T16:00:41.026Z,9.50
2023-01-18T16:03:25.532Z,9.02
2023-01-18T16:06:05.711Z,8.70
2023-01-18T16:08:32.610Z,9.80
2023-01-18T16:10:59.038Z,8.48
2023-01-18T16:13:31.893Z,9.75
2023-01-18T16:16:15.740Z,8.38
2023-01-18T16:18:44.833Z,8.98
2023-01-18T16:21:22.439Z,8.80
2023-01-18T16:23:52.276Z,9.23
2023-01-18T16:26:23.366Z,9.20
2023-01-18T16:28:51.535Z,9.30
2023-01-18T16:31:20.969Z,9.43
2023-01-18T16:33:47.320Z,9.63
2023-01-18T16:36:16.920Z,10.25
2023-01-18T16:38:43.403Z,10.05
2023-01-18T16:41:10.787Z,9.73
2023-01-18T16:43:37.097Z,10.05
2023-01-18T16:46:04.514Z,9.88
2023-01-18T16:48:33.437Z,9.82
2023-01-18T16:51:01.248Z,8.93
2023-01-18T16:53:29.066Z,9.20
2023-01-18T16:55:56.687Z,9.40
2023-01-18T16:58:23.965Z,10.05
2023-01-18T17:01:07.518Z,9.93
2023-01-18T17:03:35.867Z,9.65
2023-01-18T17:06:02.673Z,9.65
2023-01-18T17:08:29.100Z,9.77
2023-01-18T17:10:55.861Z,10.18
2023-01-18T17:13:22.461Z,9.73
2023-01-18T17:15:49.164Z,10.52
2023-01-18T17:18:20.616Z,9.75
2023-01-18T17:20:47.044Z,10.02
2023-01-18T17:23:13.542Z,10.45
2023-01-18T17:25:40.405Z,10.93
2023-01-18T17:28:06.923Z,10.05
2023-01-18T17:30:33.417Z,10.30
2023-01-18T17:33:02.895Z,10.25
2023-01-18T17:35:29.465Z,9.60
2023-01-18T17:38:01.056Z,9.35
2023-01-18T17:40:39.976Z,10.20
2023-01-18T17:43:15.131Z,9.75
2023-01-18T17:45:48.383Z,10.38
2023-01-18T17:48:18.272Z,10.05
2023-01-18T17:50:44.608Z,9.65
2023-01-18T17:53:10.957Z,9.50
2023-01-18T17:55:40.281Z,10.23
2023-01-18T17:58:18.836Z,10.40
2023-01-18T18:00:45.325Z,8.93
2023-01-18T18:03:11.773Z,9.43
2023-01-18T18:05:38.259Z,9.60
2023-01-18T18:08:04.824Z,9.75
2023-01-18T18:10:31.551Z,9.68
2023-01-18T18:12:58.739Z,9.63
2023-01-18T18:15:25.282Z,9.88
2023-01-18T18:17:51.620Z,9.77
2023-01-18T18:20:18.194Z,9.60
2023-01-18T18:22:44.774Z,9.50
2023-01-18T18:25:11.193Z,9.32
2023-01-18T18:27:45.572Z,10.40
2023-01-18T18:30:13.124Z,10.70
2023-01-18T18:32:39.623Z,8.95
2023-01-18T18:35:23.001Z,10.68
2023-01-18T18:37:51.546Z,9.68
2023-01-18T18:40:18.797Z,10.32
2023-01-18T18:42:49.917Z,10.10
2023-01-18T18:45:26.946Z,9.38
2023-01-18T18:47:53.525Z,9.63
2023-01-18T18:50:19.928Z,9.30
2023-01-18T18:52:46.296Z,10.38
2023-01-18T18:55:12.823Z,9.48
2023-01-18T18:57:39.342Z,9.45
2023-01-18T19:00:07.400Z,9.55
2023-01-18T19:02:34.581Z,10.82
2023-01-18T19:05:01.845Z,13.65
2023-01-18T19:07:28.285Z,11.23
2023-01-18T19:09:54.651Z,10.95
2023-01-18T19:12:21.013Z,11.65
2023-01-18T19:14:47.716Z,10.55
2023-01-18T19:17:25.204Z,8.95
2023-01-18T19:19:55.504Z,9.15
2023-01-18T19:22:21.839Z,9.38
2023-01-18T19:24:48.495Z,9.25
2023-01-18T19:27:14.867Z,9.73
2023-01-18T19:29:41.439Z,9.88
2023-01-18T19:32:07.803Z,9.57
2023-01-18T19:34:34.267Z,8.48
2023-01-18T19:37:00.657Z,8.98
2023-01-18T19:39:27.018Z,9.05
2023-01-18T19:41:53.550Z,8.13
2023-01-18T19:44:19.852Z,8.88
2023-01-18T19:46:46.394Z,8.30
2023-01-18T19:49:12.725Z,8.70
2023-01-18T19:51:41.123Z,8.15
2023-01-18T19:54:09.837Z,8.13
2023-01-18T19:56:36.248Z,8.05
2023-01-18T19:59:03.638Z,8.00
2023-01-18T20:01:36.815Z,8.43
2023-01-18T20:04:05.805Z,8.25
2023-01-18T20:06:32.901Z,7.75
2023-01-18T20:08:59.323Z,8.25
2023-01-18T20:11:25.706Z,8.30
2023-01-18T20:13:52.185Z,9.43
2023-01-18T20:16:21.772Z,7.90
2023-01-18T20:18:48.746Z,7.05
2023-01-18T20:21:18.446Z,7.10
2023-01-18T20:23:45.448Z,6.97
2023-01-18T20:26:14.522Z,7.38
2023-01-18T20:28:41.981Z,7.50
2023-01-18T20:31:10.108Z,7.22
2023-01-18T20:33:38.062Z,6.35
2023-01-18T20:36:06.237Z,7.78
2023-01-18T20:38:33.693Z,6.25
2023-01-18T20:41:00.391Z,7.85
2023-01-18T20:43:27.085Z,6.68
2023-01-18T20:46:01.810Z,7.90
2023-01-18T20:48:28.754Z,7.67
2023-01-18T20:50:58.586Z,6.60
2023-01-18T20:53:26.421Z,6.78
2023-01-18T20:55:54.951Z,8.48
2023-01-18T20:58:22.744Z,6.90
2023-01-18T21:00:49.942Z,7.15
2023-01-18T21:03:19.546Z,7.13
2023-01-18T21:05:46.340Z,5.93
2023-01-18T21:08:13.257Z,7.22
2023-01-18T21:10:41.738Z,7.50
2023-01-18T21:13:09.632Z,6.57
2023-01-18T21:15:37.140Z,6.05
2023-01-18T21:18:05.252Z,7.07
2023-01-18T21:20:31.988Z,6.57
2023-01-18T21:22:59.906Z,6.28
2023-01-18T21:25:27.804Z,6.35
2023-01-18T21:27:54.711Z,7.53
2023-01-18T21:30:21.699Z,6.10
2023-01-18T21:32:48.320Z,6.50
2023-01-18T21:35:15.106Z,6.22
2023-01-18T21:37:41.778Z,6.03
2023-01-18T21:40:09.321Z,6.88
2023-01-18T21:42:54.359Z,6.80
2023-01-18T21:45:39.145Z,6.75
2023-01-18T21:48:08.812Z,6.20
2023-01-18T21:50:57.996Z,6.50
2023-01-18T21:53:47.808Z,5.75
2023-01-18T21:56:14.257Z,6.38
2023-01-18T21:58:52.843Z,6.55
2023-01-18T22:01:34.382Z,6.95
2023-01-18T22:04:21.551Z,6.50
2023-01-18T22:06:48.742Z,7.30
2023-01-18T22:09:15.574Z,6.90
2023-01-18T22:11:42.255Z,7.28
2023-01-18T22:14:09.347Z,7.05
2023-01-18T22:16:36.422Z,7.32
2023-01-18T22:19:04.816Z,6.70
2023-01-18T22:21:32.204Z,6.75
2023-01-18T22:23:58.594Z,7.22
2023-01-18T22:26:27.485Z,7.55
2023-01-18T22:28:53.838Z,7.55
2023-01-18T22:31:20.329Z,7.57
2023-01-18T22:33:48.274Z,7.80
2023-01-18T22:36:15.974Z,8.15
2023-01-18T22:38:42.490Z,7.78
2023-01-18T22:41:17.263Z,8.40
2023-01-18T22:43:44.975Z,7.33
2023-01-18T22:46:16.706Z,7.72
2023-01-18T22:48:43.778Z,9.00
2023-01-18T22:51:16.313Z,8.15
2023-01-18T22:53:44.270Z,7.97
2023-01-18T22:56:13.772Z,7.78
2023-01-18T22:58:40.540Z,8.25
2023-01-18T23:01:28.253Z,8.23
2023-01-18T23:04:02.506Z,7.55
2023-01-18T23:06:42.193Z,7.80
2023-01-18T23:09:10.029Z,8.02
2023-01-18T23:11:37.264Z,7.70
2023-01-18T23:14:23.487Z,8.35
2023-01-18T23:17:08.283Z,7.60
2023-01-18T23:19:34.921Z,7.43
2023-01-18T23:22:07.316Z,8.38
2023-01-18T23:24:35.693Z,8.50
2023-01-18T23:27:03.478Z,7.97
2023-01-18T23:29:29.914Z,7.90
2023-01-18T23:31:57.634Z,8.15
2023-01-18T23:34:24.810Z,8.45
2023-01-18T23:36:51.175Z,9.15
2023-01-18T23:39:36.380Z,7.72
2023-01-18T23:42:21.635Z,7.37
2023-01-18T23:45:06.386Z,8.00
2023-01-18T23:47:51.067Z,8.05
2023-01-18T23:50:35.945Z,8.77
2023-01-18T23:53:20.535Z,7.90
2023-01-18T23:55:47.116Z,8.35
2023-01-18T23:58:13.451Z,8.10
